sensor_id;sensor_type;location;lat;lon;timestamp;pressure;altitude;pressure_sealevel;temperature;humidity
44457;BME280;30159;49.316;8.558;2023-07-22T00:00:41;100276.97;;;20.35;75.47
44457;BME280;30159;49.316;8.558;2023-07-22T00:03:08;100276.00;;;20.27;75.60
44457;BME280;30159;49.316;8.558;2023-07-22T00:05:35;100284.13;;;20.24;75.21
44457;BME280;30159;49.316;8.558;2023-07-22T00:08:01;100279.78;;;20.23;74.82
44457;BME280;30159;49.316;8.558;2023-07-22T00:10:28;100279.91;;;20.14;75.37
44457;BME280;30159;49.316;8.558;2023-07-22T00:12:56;100279.34;;;20.08;75.79
44457;BME280;30159;49.316;8.558;2023-07-22T00:15:23;100275.63;;;20.00;76.22
44457;BME280;30159;49.316;8.558;2023-07-22T00:17:50;100280.06;;;20.05;75.98
44457;BME280;30159;49.316;8.558;2023-07-22T00:20:17;100278.44;;;20.04;75.24
44457;BME280;30159;49.316;8.558;2023-07-22T00:22:45;100292.63;;;19.94;75.93
44457;BME280;30159;49.316;8.558;2023-07-22T00:25:12;100290.59;;;19.91;75.84
44457;BME280;30159;49.316;8.558;2023-07-22T00:27:39;100285.91;;;19.91;75.57
44457;BME280;30159;49.316;8.558;2023-07-22T00:30:08;100288.06;;;19.86;75.80
44457;BME280;30159;49.316;8.558;2023-07-22T00:32:36;100266.75;;;19.67;76.97
44457;BME280;30159;49.316;8.558;2023-07-22T00:35:03;100276.81;;;19.75;76.62
44457;BME280;30159;49.316;8.558;2023-07-22T00:37:30;100265.50;;;19.64;76.68
44457;BME280;30159;49.316;8.558;2023-07-22T00:39:57;100263.78;;;19.59;77.43
44457;BME280;30159;49.316;8.558;2023-07-22T00:42:24;100261.84;;;19.48;77.72
44457;BME280;30159;49.316;8.558;2023-07-22T00:44:51;100282.81;;;19.31;78.78
44457;BME280;30159;49.316;8.558;2023-07-22T00:47:19;100266.09;;;19.33;78.38
44457;BME280;30159;49.316;8.558;2023-07-22T00:49:47;100261.41;;;19.33;77.74
44457;BME280;30159;49.316;8.558;2023-07-22T00:52:15;100125.28;;;18.32;78.10
44457;BME280;30159;49.316;8.558;2023-07-22T00:54:43;100270.28;;;19.18;79.14
44457;BME280;30159;49.316;8.558;2023-07-22T00:57:10;100273.25;;;19.13;79.65
44457;BME280;30159;49.316;8.558;2023-07-22T00:59:38;100265.81;;;19.13;79.70
44457;BME280;30159;49.316;8.558;2023-07-22T01:02:05;100260.59;;;19.21;79.48
44457;BME280;30159;49.316;8.558;2023-07-22T01:04:34;100274.94;;;19.30;79.87
44457;BME280;30159;49.316;8.558;2023-07-22T01:07:01;100232.59;;;19.11;79.55
44457;BME280;30159;49.316;8.558;2023-07-22T01:09:34;100275.06;;;19.46;79.49
44457;BME280;30159;49.316;8.558;2023-07-22T01:12:01;100274.63;;;19.44;79.97
44457;BME280;30159;49.316;8.558;2023-07-22T01:14:28;100266.88;;;19.33;81.18
44457;BME280;30159;49.316;8.558;2023-07-22T01:16:58;100266.19;;;19.24;81.89
44457;BME280;30159;49.316;8.558;2023-07-22T01:19:25;100271.28;;;19.13;83.19
44457;BME280;30159;49.316;8.558;2023-07-22T01:21:53;100270.03;;;19.11;83.23
44457;BME280;30159;49.316;8.558;2023-07-22T01:24:22;100263.09;;;19.13;83.43
44457;BME280;30159;49.316;8.558;2023-07-22T01:26:49;100268.56;;;19.13;83.86
44457;BME280;30159;49.316;8.558;2023-07-22T01:29:16;100256.84;;;19.13;84.09
44457;BME280;30159;49.316;8.558;2023-07-22T01:31:46;100269.47;;;19.17;85.14
44457;BME280;30159;49.316;8.558;2023-07-22T01:34:13;100272.91;;;19.14;86.52
44457;BME280;30159;49.316;8.558;2023-07-22T01:36:40;100265.72;;;19.10;86.77
44457;BME280;30159;49.316;8.558;2023-07-22T01:39:08;100265.16;;;19.16;86.33
44457;BME280;30159;49.316;8.558;2023-07-22T01:41:37;100267.75;;;19.13;87.23
44457;BME280;30159;49.316;8.558;2023-07-22T01:44:04;100252.16;;;19.13;86.60
44457;BME280;30159;49.316;8.558;2023-07-22T01:46:30;100265.81;;;19.13;86.10
44457;BME280;30159;49.316;8.558;2023-07-22T01:48:57;100263.09;;;19.13;85.83
44457;BME280;30159;49.316;8.558;2023-07-22T01:51:24;100252.84;;;19.10;86.17
44457;BME280;30159;49.316;8.558;2023-07-22T01:53:51;100256.13;;;19.04;86.52
44457;BME280;30159;49.316;8.558;2023-07-22T01:56:18;100250.81;;;19.07;86.01
44457;BME280;30159;49.316;8.558;2023-07-22T01:58:47;100241.81;;;19.07;85.56
44457;BME280;30159;49.316;8.558;2023-07-22T02:01:13;100237.91;;;19.08;86.17
44457;BME280;30159;49.316;8.558;2023-07-22T02:03:43;100244.41;;;19.15;85.74
44457;BME280;30159;49.316;8.558;2023-07-22T02:06:10;100237.13;;;19.07;86.34
44457;BME280;30159;49.316;8.558;2023-07-22T02:08:37;100243.94;;;19.13;86.74
44457;BME280;30159;49.316;8.558;2023-07-22T02:11:05;100075.09;;;18.12;86.63
44457;BME280;30159;49.316;8.558;2023-07-22T02:13:32;100169.28;;;18.64;87.60
44457;BME280;30159;49.316;8.558;2023-07-22T02:16:01;100236.34;;;19.07;87.80
44457;BME280;30159;49.316;8.558;2023-07-22T02:18:28;100251.25;;;19.09;87.92
44457;BME280;30159;49.316;8.558;2023-07-22T02:20:56;100124.03;;;18.29;87.97
44457;BME280;30159;49.316;8.558;2023-07-22T02:23:23;100238.06;;;19.11;88.53
44457;BME280;30159;49.316;8.558;2023-07-22T02:25:50;100129.31;;;18.35;87.76
44457;BME280;30159;49.316;8.558;2023-07-22T02:28:17;100245.19;;;19.16;88.05
44457;BME280;30159;49.316;8.558;2023-07-22T02:30:46;100249.78;;;19.12;88.23
44457;BME280;30159;49.316;8.558;2023-07-22T02:33:15;100242.38;;;19.12;88.30
44457;BME280;30159;49.316;8.558;2023-07-22T02:35:42;100249.00;;;19.11;88.49
44457;BME280;30159;49.316;8.558;2023-07-22T02:38:09;100246.91;;;18.96;89.28
44457;BME280;30159;49.316;8.558;2023-07-22T02:40:36;100258.41;;;19.02;89.59
44457;BME280;30159;49.316;8.558;2023-07-22T02:43:03;100124.81;;;18.18;89.54
44457;BME280;30159;49.316;8.558;2023-07-22T02:45:30;100222.63;;;18.82;89.84
44457;BME280;30159;49.316;8.558;2023-07-22T02:47:57;100268.56;;;19.13;90.13
44457;BME280;30159;49.316;8.558;2023-07-22T02:50:25;100278.00;;;19.16;90.65
44457;BME280;30159;49.316;8.558;2023-07-22T02:52:52;100270.41;;;19.22;90.93
44457;BME280;30159;49.316;8.558;2023-07-22T02:55:18;100277.22;;;19.03;92.55
44457;BME280;30159;49.316;8.558;2023-07-22T02:57:46;100301.09;;;18.61;95.74
44457;BME280;30159;49.316;8.558;2023-07-22T03:00:14;100313.91;;;18.48;97.91
44457;BME280;30159;49.316;8.558;2023-07-22T03:02:45;100313.41;;;18.67;97.78
44457;BME280;30159;49.316;8.558;2023-07-22T03:05:12;100265.50;;;18.69;96.14
44457;BME280;30159;49.316;8.558;2023-07-22T03:07:40;100280.66;;;19.12;96.50
44457;BME280;30159;49.316;8.558;2023-07-22T03:10:07;100258.53;;;19.05;98.87
44457;BME280;30159;49.316;8.558;2023-07-22T03:12:35;100282.69;;;19.15;100.00
44457;BME280;30159;49.316;8.558;2023-07-22T03:15:02;100278.47;;;19.06;100.00
44457;BME280;30159;49.316;8.558;2023-07-22T03:17:29;100275.38;;;18.95;100.00
44457;BME280;30159;49.316;8.558;2023-07-22T03:19:56;100275.28;;;19.04;100.00
44457;BME280;30159;49.316;8.558;2023-07-22T03:22:22;100274.94;;;18.93;100.00
44457;BME280;30159;49.316;8.558;2023-07-22T03:24:50;100268.78;;;18.96;100.00
44457;BME280;30159;49.316;8.558;2023-07-22T03:27:17;100258.94;;;18.83;100.00
44457;BME280;30159;49.316;8.558;2023-07-22T03:29:44;100258.16;;;18.82;100.00
44457;BME280;30159;49.316;8.558;2023-07-22T03:32:10;100221.72;;;18.45;100.00
44457;BME280;30159;49.316;8.558;2023-07-22T03:34:37;100158.69;;;17.83;100.00
44457;BME280;30159;49.316;8.558;2023-07-22T03:37:04;100259.91;;;18.66;100.00
44457;BME280;30159;49.316;8.558;2023-07-22T03:39:30;100261.38;;;18.63;100.00
44457;BME280;30159;49.316;8.558;2023-07-22T03:41:58;100262.50;;;18.62;100.00
44457;BME280;30159;49.316;8.558;2023-07-22T03:44:26;100258.19;;;18.61;100.00
44457;BME280;30159;49.316;8.558;2023-07-22T03:46:54;100247.94;;;18.58;100.00
44457;BME280;30159;49.316;8.558;2023-07-22T03:49:20;100247.94;;;18.58;100.00
44457;BME280;30159;49.316;8.558;2023-07-22T03:51:47;100250.31;;;18.60;100.00
44457;BME280;30159;49.316;8.558;2023-07-22T03:54:14;100249.06;;;18.57;100.00
44457;BME280;30159;49.316;8.558;2023-07-22T03:56:41;100245.41;;;18.53;100.00
44457;BME280;30159;49.316;8.558;2023-07-22T03:59:09;100252.59;;;18.58;100.00
44457;BME280;30159;49.316;8.558;2023-07-22T04:01:35;100240.16;;;18.48;100.00
44457;BME280;30159;49.316;8.558;2023-07-22T04:04:02;100258.88;;;18.58;99.76
44457;BME280;30159;49.316;8.558;2023-07-22T04:06:28;100261.25;;;18.60;99.05
44457;BME280;30159;49.316;8.558;2023-07-22T04:08:55;100257.78;;;18.50;100.00
44457;BME280;30159;49.316;8.558;2023-07-22T04:11:22;100263.41;;;18.54;100.00
44457;BME280;30159;49.316;8.558;2023-07-22T04:13:48;100264.19;;;18.54;100.00
44457;BME280;30159;49.316;8.558;2023-07-22T04:16:16;100257.47;;;18.52;100.00
44457;BME280;30159;49.316;8.558;2023-07-22T04:18:43;100268.19;;;18.57;100.00
44457;BME280;30159;49.316;8.558;2023-07-22T04:21:09;100267.53;;;18.60;100.00
44457;BME280;30159;49.316;8.558;2023-07-22T04:23:36;100228.00;;;18.24;100.00
44457;BME280;30159;49.316;8.558;2023-07-22T04:26:03;100280.22;;;18.44;100.00
44457;BME280;30159;49.316;8.558;2023-07-22T04:28:32;100273.84;;;18.52;100.00
44457;BME280;30159;49.316;8.558;2023-07-22T04:30:59;100270.59;;;18.59;100.00
44457;BME280;30159;49.316;8.558;2023-07-22T04:33:27;100270.56;;;18.80;99.07
44457;BME280;30159;49.316;8.558;2023-07-22T04:35:56;100250.00;;;18.73;98.54
44457;BME280;30159;49.316;8.558;2023-07-22T04:38:22;100266.69;;;18.81;99.45
44457;BME280;30159;49.316;8.558;2023-07-22T04:40:49;100267.59;;;18.85;99.63
44457;BME280;30159;49.316;8.558;2023-07-22T04:43:15;100251.91;;;18.82;99.71
44457;BME280;30159;49.316;8.558;2023-07-22T04:45:44;100270.34;;;18.97;99.40
44457;BME280;30159;49.316;8.558;2023-07-22T04:48:13;100279.03;;;18.99;99.59
44457;BME280;30159;49.316;8.558;2023-07-22T04:50:41;100270.97;;;19.03;99.23
44457;BME280;30159;49.316;8.558;2023-07-22T04:53:10;100276.06;;;19.04;99.27
44457;BME280;30159;49.316;8.558;2023-07-22T04:55:38;100277.91;;;19.12;98.41
44457;BME280;30159;49.316;8.558;2023-07-22T04:58:05;100283.06;;;19.14;98.85
44457;BME280;30159;49.316;8.558;2023-07-22T05:00:32;100272.53;;;19.16;99.36
44457;BME280;30159;49.316;8.558;2023-07-22T05:02:59;100289.78;;;19.29;98.49
44457;BME280;30159;49.316;8.558;2023-07-22T05:05:25;100306.09;;;19.37;98.12
44457;BME280;30159;49.316;8.558;2023-07-22T05:07:53;100291.84;;;19.44;97.33
44457;BME280;30159;49.316;8.558;2023-07-22T05:10:20;100289.09;;;19.56;96.84
44457;BME280;30159;49.316;8.558;2023-07-22T05:12:47;100289.13;;;19.69;96.04
44457;BME280;30159;49.316;8.558;2023-07-22T05:15:13;100298.69;;;19.75;94.45
44457;BME280;30159;49.316;8.558;2023-07-22T05:17:40;100273.63;;;19.73;93.50
44457;BME280;30159;49.316;8.558;2023-07-22T05:20:07;100283.28;;;19.83;93.09
44457;BME280;30159;49.316;8.558;2023-07-22T05:22:36;100294.88;;;20.04;91.66
44457;BME280;30159;49.316;8.558;2023-07-22T05:25:05;100296.38;;;20.02;90.81
44457;BME280;30159;49.316;8.558;2023-07-22T05:27:33;100295.03;;;19.95;90.33
44457;BME280;30159;49.316;8.558;2023-07-22T05:29:59;100305.97;;;19.95;91.15
44457;BME280;30159;49.316;8.558;2023-07-22T05:32:28;100301.75;;;19.86;91.94
44457;BME280;30159;49.316;8.558;2023-07-22T05:34:54;100302.34;;;19.91;91.51
44457;BME280;30159;49.316;8.558;2023-07-22T05:37:21;100289.31;;;19.64;93.26
44457;BME280;30159;49.316;8.558;2023-07-22T05:39:48;100305.41;;;19.65;94.74
44457;BME280;30159;49.316;8.558;2023-07-22T05:42:16;100159.50;;;18.75;94.68
44457;BME280;30159;49.316;8.558;2023-07-22T05:44:42;100300.50;;;19.58;94.98
44457;BME280;30159;49.316;8.558;2023-07-22T05:47:09;100304.59;;;19.52;95.73
44457;BME280;30159;49.316;8.558;2023-07-22T05:49:36;100295.94;;;19.50;95.29
44457;BME280;30159;49.316;8.558;2023-07-22T05:52:03;100301.88;;;19.52;94.63
44457;BME280;30159;49.316;8.558;2023-07-22T05:54:28;100302.31;;;19.54;93.88
44457;BME280;30159;49.316;8.558;2023-07-22T05:56:55;100307.78;;;19.67;93.98
44457;BME280;30159;49.316;8.558;2023-07-22T05:59:23;100305.66;;;19.85;92.79
44457;BME280;30159;49.316;8.558;2023-07-22T06:01:50;100306.66;;;19.92;92.63
44457;BME280;30159;49.316;8.558;2023-07-22T06:04:17;100309.38;;;20.05;91.74
44457;BME280;30159;49.316;8.558;2023-07-22T06:06:43;100311.88;;;20.10;91.12
44457;BME280;30159;49.316;8.558;2023-07-22T06:09:10;100301.69;;;20.23;90.44
44457;BME280;30159;49.316;8.558;2023-07-22T06:11:37;100309.34;;;20.57;88.27
44457;BME280;30159;49.316;8.558;2023-07-22T06:14:03;100301.81;;;20.82;87.48
44457;BME280;30159;49.316;8.558;2023-07-22T06:16:31;100305.47;;;21.18;85.33
44457;BME280;30159;49.316;8.558;2023-07-22T06:18:58;100311.50;;;21.56;82.38
44457;BME280;30159;49.316;8.558;2023-07-22T06:21:24;100301.75;;;21.74;81.14
44457;BME280;30159;49.316;8.558;2023-07-22T06:23:51;100316.16;;;21.87;79.90
44457;BME280;30159;49.316;8.558;2023-07-22T06:26:18;100289.22;;;21.57;79.94
44457;BME280;30159;49.316;8.558;2023-07-22T06:28:44;100318.84;;;21.67;80.20
44457;BME280;30159;49.316;8.558;2023-07-22T06:31:11;100321.41;;;21.60;80.74
44457;BME280;30159;49.316;8.558;2023-07-22T06:33:39;100323.53;;;21.67;81.24
44457;BME280;30159;49.316;8.558;2023-07-22T06:36:06;100324.44;;;21.71;80.88
44457;BME280;30159;49.316;8.558;2023-07-22T06:38:32;100328.41;;;21.74;79.77
44457;BME280;30159;49.316;8.558;2023-07-22T06:40:59;100330.00;;;21.75;79.98
44457;BME280;30159;49.316;8.558;2023-07-22T06:43:25;100346.28;;;21.83;79.89
44457;BME280;30159;49.316;8.558;2023-07-22T06:45:52;100333.78;;;21.86;79.53
44457;BME280;30159;49.316;8.558;2023-07-22T06:48:19;100328.84;;;21.92;79.71
44457;BME280;30159;49.316;8.558;2023-07-22T06:50:50;100210.78;;;21.24;79.14
44457;BME280;30159;49.316;8.558;2023-07-22T06:53:17;100341.41;;;22.28;78.76
44457;BME280;30159;49.316;8.558;2023-07-22T06:55:48;100340.63;;;22.66;76.31
44457;BME280;30159;49.316;8.558;2023-07-22T06:58:15;100333.47;;;22.62;76.19
44457;BME280;30159;49.316;8.558;2023-07-22T07:00:42;100330.81;;;22.46;76.47
44457;BME280;30159;49.316;8.558;2023-07-22T07:03:09;100339.03;;;22.46;76.90
44457;BME280;30159;49.316;8.558;2023-07-22T07:05:35;100332.47;;;22.50;76.79
44457;BME280;30159;49.316;8.558;2023-07-22T07:08:04;100330.91;;;22.72;75.82
44457;BME280;30159;49.316;8.558;2023-07-22T07:10:31;100314.03;;;23.13;74.29
44457;BME280;30159;49.316;8.558;2023-07-22T07:12:58;100185.47;;;22.90;71.24
44457;BME280;30159;49.316;8.558;2023-07-22T07:15:25;100153.50;;;24.26;66.21
44457;BME280;30159;49.316;8.558;2023-07-22T07:17:51;100333.19;;;25.96;64.01
44457;BME280;30159;49.316;8.558;2023-07-22T07:20:18;100314.28;;;25.50;64.50
44457;BME280;30159;49.316;8.558;2023-07-22T07:22:45;100344.66;;;25.50;65.54
44457;BME280;30159;49.316;8.558;2023-07-22T07:25:13;100341.91;;;25.50;65.55
44457;BME280;30159;49.316;8.558;2023-07-22T07:27:41;100343.41;;;25.36;65.94
44457;BME280;30159;49.316;8.558;2023-07-22T07:30:08;100348.25;;;25.54;65.30
44457;BME280;30159;49.316;8.558;2023-07-22T07:32:36;100359.91;;;25.29;66.40
44457;BME280;30159;49.316;8.558;2023-07-22T07:35:03;100339.53;;;25.07;66.63
44457;BME280;30159;49.316;8.558;2023-07-22T07:37:31;100339.59;;;25.11;66.84
44457;BME280;30159;49.316;8.558;2023-07-22T07:39:58;100344.41;;;24.84;66.58
44457;BME280;30159;49.316;8.558;2023-07-22T07:42:26;100352.31;;;24.51;67.84
44457;BME280;30159;49.316;8.558;2023-07-22T07:44:53;100348.72;;;24.47;71.45
44457;BME280;30159;49.316;8.558;2023-07-22T07:47:19;100350.53;;;24.36;68.87
44457;BME280;30159;49.316;8.558;2023-07-22T07:49:46;100348.19;;;24.38;68.48
44457;BME280;30159;49.316;8.558;2023-07-22T07:52:13;100346.34;;;24.19;69.80
44457;BME280;30159;49.316;8.558;2023-07-22T07:54:39;100340.38;;;24.13;69.33
44457;BME280;30159;49.316;8.558;2023-07-22T07:57:06;100352.81;;;24.57;69.41
44457;BME280;30159;49.316;8.558;2023-07-22T07:59:34;100359.94;;;24.62;67.56
44457;BME280;30159;49.316;8.558;2023-07-22T08:02:01;100349.84;;;24.76;67.64
44457;BME280;30159;49.316;8.558;2023-07-22T08:04:29;100351.56;;;24.88;66.53
44457;BME280;30159;49.316;8.558;2023-07-22T08:06:56;100349.56;;;24.85;66.95
44457;BME280;30159;49.316;8.558;2023-07-22T08:09:22;100353.25;;;24.63;67.36
44457;BME280;30159;49.316;8.558;2023-07-22T08:11:49;100333.50;;;24.57;67.25
44457;BME280;30159;49.316;8.558;2023-07-22T08:14:15;100351.66;;;24.31;68.76
44457;BME280;30159;49.316;8.558;2023-07-22T08:16:45;100351.78;;;24.42;68.38
44457;BME280;30159;49.316;8.558;2023-07-22T08:19:11;100326.25;;;24.15;67.82
44457;BME280;30159;49.316;8.558;2023-07-22T08:21:38;100347.31;;;24.30;68.51
44457;BME280;30159;49.316;8.558;2023-07-22T08:24:05;100345.31;;;24.27;68.65
44457;BME280;30159;49.316;8.558;2023-07-22T08:26:32;100188.19;;;23.37;68.42
44457;BME280;30159;49.316;8.558;2023-07-22T08:28:59;100346.25;;;24.42;68.95
44457;BME280;30159;49.316;8.558;2023-07-22T08:31:25;100351.56;;;24.54;68.48
44457;BME280;30159;49.316;8.558;2023-07-22T08:33:53;100353.47;;;24.20;69.13
44457;BME280;30159;49.316;8.558;2023-07-22T08:36:20;100338.91;;;24.50;68.66
44457;BME280;30159;49.316;8.558;2023-07-22T08:38:47;100339.03;;;24.98;66.39
44457;BME280;30159;49.316;8.558;2023-07-22T08:41:14;100342.78;;;25.16;65.26
44457;BME280;30159;49.316;8.558;2023-07-22T08:43:45;100337.22;;;25.13;65.63
44457;BME280;30159;49.316;8.558;2023-07-22T08:46:12;100346.94;;;25.40;65.04
44457;BME280;30159;49.316;8.558;2023-07-22T08:48:41;100331.97;;;25.93;62.38
44457;BME280;30159;49.316;8.558;2023-07-22T08:51:12;100331.47;;;26.50;61.33
44457;BME280;30159;49.316;8.558;2023-07-22T08:53:40;100334.63;;;26.52;60.03
44457;BME280;30159;49.316;8.558;2023-07-22T08:56:06;100330.84;;;26.01;60.68
44457;BME280;30159;49.316;8.558;2023-07-22T08:58:34;100329.13;;;25.82;61.34
44457;BME280;30159;49.316;8.558;2023-07-22T09:01:01;100305.75;;;25.69;61.77
44457;BME280;30159;49.316;8.558;2023-07-22T09:03:28;100313.59;;;25.60;62.24
44457;BME280;30159;49.316;8.558;2023-07-22T09:05:55;100323.81;;;25.56;61.82
44457;BME280;30159;49.316;8.558;2023-07-22T09:08:24;100328.19;;;25.64;61.11
44457;BME280;30159;49.316;8.558;2023-07-22T09:10:51;100315.84;;;25.47;58.35
44457;BME280;30159;49.316;8.558;2023-07-22T09:13:18;100315.72;;;25.29;60.18
44457;BME280;30159;49.316;8.558;2023-07-22T09:15:45;100312.97;;;25.33;59.19
44457;BME280;30159;49.316;8.558;2023-07-22T09:18:13;100315.31;;;25.31;57.47
44457;BME280;30159;49.316;8.558;2023-07-22T09:20:41;100315.31;;;25.31;58.20
44457;BME280;30159;49.316;8.558;2023-07-22T09:23:08;100303.31;;;25.60;57.96
44457;BME280;30159;49.316;8.558;2023-07-22T09:25:36;100293.56;;;25.77;57.74
44457;BME280;30159;49.316;8.558;2023-07-22T09:28:02;100305.09;;;25.86;56.37
44457;BME280;30159;49.316;8.558;2023-07-22T09:30:36;100304.41;;;26.04;56.62
44457;BME280;30159;49.316;8.558;2023-07-22T09:33:04;100296.63;;;26.38;56.22
44457;BME280;30159;49.316;8.558;2023-07-22T09:35:44;100301.94;;;26.83;55.79
44457;BME280;30159;49.316;8.558;2023-07-22T09:38:11;100302.31;;;26.70;55.73
44457;BME280;30159;49.316;8.558;2023-07-22T09:40:41;100306.66;;;26.68;54.23
44457;BME280;30159;49.316;8.558;2023-07-22T09:43:10;100300.31;;;26.60;55.29
44457;BME280;30159;49.316;8.558;2023-07-22T09:45:37;100300.69;;;26.59;55.23
44457;BME280;30159;49.316;8.558;2023-07-22T09:48:04;100302.19;;;26.38;56.16
44457;BME280;30159;49.316;8.558;2023-07-22T09:50:31;100297.78;;;26.26;56.57
44457;BME280;30159;49.316;8.558;2023-07-22T09:52:59;100297.66;;;25.98;56.47
44457;BME280;30159;49.316;8.558;2023-07-22T09:55:28;100287.72;;;25.90;56.96
44457;BME280;30159;49.316;8.558;2023-07-22T09:57:58;100286.91;;;25.85;56.75
44457;BME280;30159;49.316;8.558;2023-07-22T10:00:28;100282.19;;;25.90;57.39
44457;BME280;30159;49.316;8.558;2023-07-22T10:02:57;100284.09;;;25.78;57.11
44457;BME280;30159;49.316;8.558;2023-07-22T10:05:25;100290.00;;;25.80;57.96
44457;BME280;30159;49.316;8.558;2023-07-22T10:07:54;100152.16;;;24.95;58.63
44457;BME280;30159;49.316;8.558;2023-07-22T10:10:31;100274.75;;;26.01;58.15
44457;BME280;30159;49.316;8.558;2023-07-22T10:13:00;100286.19;;;25.92;58.85
44457;BME280;30159;49.316;8.558;2023-07-22T10:15:29;100272.41;;;26.03;58.16
44457;BME280;30159;49.316;8.558;2023-07-22T10:17:56;100281.84;;;25.95;57.06
44457;BME280;30159;49.316;8.558;2023-07-22T10:20:23;100267.59;;;25.89;56.90
44457;BME280;30159;49.316;8.558;2023-07-22T10:22:51;100279.34;;;25.75;57.30
44457;BME280;30159;49.316;8.558;2023-07-22T10:25:19;100263.66;;;25.90;57.22
44457;BME280;30159;49.316;8.558;2023-07-22T10:27:46;100259.03;;;26.19;57.32
44457;BME280;30159;49.316;8.558;2023-07-22T10:30:15;100117.44;;;25.53;57.05
44457;BME280;30159;49.316;8.558;2023-07-22T10:32:43;100259.19;;;26.59;54.29
44457;BME280;30159;49.316;8.558;2023-07-22T10:35:12;100258.06;;;26.88;53.32
44457;BME280;30159;49.316;8.558;2023-07-22T10:37:39;100247.78;;;27.25;54.38
44457;BME280;30159;49.316;8.558;2023-07-22T10:40:18;100246.97;;;27.57;53.92
44457;BME280;30159;49.316;8.558;2023-07-22T10:42:59;100258.38;;;27.80;53.46
44457;BME280;30159;49.316;8.558;2023-07-22T10:45:29;100243.75;;;27.90;51.09
44457;BME280;30159;49.316;8.558;2023-07-22T10:48:03;100249.69;;;27.82;52.03
44457;BME280;30159;49.316;8.558;2023-07-22T10:50:39;100239.41;;;27.71;51.07
44457;BME280;30159;49.316;8.558;2023-07-22T10:53:06;100243.72;;;27.98;52.45
44457;BME280;30159;49.316;8.558;2023-07-22T10:56:04;100252.53;;;27.39;53.11
44457;BME280;30159;49.316;8.558;2023-07-22T10:58:31;100253.31;;;27.18;54.33
44457;BME280;30159;49.316;8.558;2023-07-22T11:01:24;100256.88;;;27.36;53.70
44457;BME280;30159;49.316;8.558;2023-07-22T11:04:21;100249.75;;;27.60;54.25
44457;BME280;30159;49.316;8.558;2023-07-22T11:06:56;100245.81;;;27.36;54.14
44457;BME280;30159;49.316;8.558;2023-07-22T11:09:41;100245.75;;;27.61;53.76
44457;BME280;30159;49.316;8.558;2023-07-22T11:12:12;100236.69;;;27.18;54.59
44457;BME280;30159;49.316;8.558;2023-07-22T11:14:41;100246.59;;;27.29;54.47
44457;BME280;30159;49.316;8.558;2023-07-22T11:17:12;100237.84;;;27.52;54.59
44457;BME280;30159;49.316;8.558;2023-07-22T11:19:39;100213.28;;;27.62;53.23
44457;BME280;30159;49.316;8.558;2023-07-22T11:22:06;100240.16;;;27.93;54.47
44457;BME280;30159;49.316;8.558;2023-07-22T11:24:35;100228.31;;;27.71;53.05
44457;BME280;30159;49.316;8.558;2023-07-22T11:27:03;100099.88;;;26.76;53.46
44457;BME280;30159;49.316;8.558;2023-07-22T11:29:30;100194.00;;;27.26;53.18
44457;BME280;30159;49.316;8.558;2023-07-22T11:31:57;100225.97;;;27.70;53.65
44457;BME280;30159;49.316;8.558;2023-07-22T11:34:26;100208.94;;;27.68;51.56
44457;BME280;30159;49.316;8.558;2023-07-22T11:36:53;100214.09;;;27.55;53.11
44457;BME280;30159;49.316;8.558;2023-07-22T11:39:21;100221.19;;;27.74;52.35
44457;BME280;30159;49.316;8.558;2023-07-22T11:41:49;100216.41;;;27.78;52.04
44457;BME280;30159;49.316;8.558;2023-07-22T11:44:19;100193.13;;;27.58;53.31
44457;BME280;30159;49.316;8.558;2023-07-22T11:46:47;100217.94;;;27.97;52.34
44457;BME280;30159;49.316;8.558;2023-07-22T11:49:22;100080.38;;;27.40;52.36
44457;BME280;30159;49.316;8.558;2023-07-22T11:51:50;100200.84;;;28.13;50.61
44457;BME280;30159;49.316;8.558;2023-07-22T11:54:16;100202.50;;;28.00;51.66
44457;BME280;30159;49.316;8.558;2023-07-22T11:56:43;100205.56;;;28.23;51.82
44457;BME280;30159;49.316;8.558;2023-07-22T11:59:10;100210.03;;;28.03;51.78
44457;BME280;30159;49.316;8.558;2023-07-22T12:01:36;100189.53;;;28.56;51.06
44457;BME280;30159;49.316;8.558;2023-07-22T12:04:09;100192.19;;;28.70;50.09
44457;BME280;30159;49.316;8.558;2023-07-22T12:06:36;100195.69;;;28.82;49.10
44457;BME280;30159;49.316;8.558;2023-07-22T12:09:07;100176.81;;;28.55;50.30
44457;BME280;30159;49.316;8.558;2023-07-22T12:11:33;100183.47;;;28.68;50.24
44457;BME280;30159;49.316;8.558;2023-07-22T12:14:10;100182.22;;;28.76;48.66
44457;BME280;30159;49.316;8.558;2023-07-22T12:16:38;100186.38;;;28.99;48.32
44457;BME280;30159;49.316;8.558;2023-07-22T12:19:05;100179.19;;;29.05;48.70
44457;BME280;30159;49.316;8.558;2023-07-22T12:21:32;100172.69;;;28.77;48.98
44457;BME280;30159;49.316;8.558;2023-07-22T12:23:59;100168.53;;;28.51;48.81
44457;BME280;30159;49.316;8.558;2023-07-22T12:26:27;100162.03;;;28.72;49.00
44457;BME280;30159;49.316;8.558;2023-07-22T12:28:54;100166.25;;;28.88;48.82
44457;BME280;30159;49.316;8.558;2023-07-22T12:31:20;100164.94;;;28.99;48.54
44457;BME280;30159;49.316;8.558;2023-07-22T12:33:47;100032.28;;;28.35;47.73
44457;BME280;30159;49.316;8.558;2023-07-22T12:36:14;100169.03;;;29.33;47.68
44457;BME280;30159;49.316;8.558;2023-07-22T12:38:41;100158.72;;;29.30;47.77
44457;BME280;30159;49.316;8.558;2023-07-22T12:41:07;100168.50;;;29.04;46.95
44457;BME280;30159;49.316;8.558;2023-07-22T12:43:35;100161.06;;;28.93;47.54
44457;BME280;30159;49.316;8.558;2023-07-22T12:46:02;100161.88;;;28.90;47.53
44457;BME280;30159;49.316;8.558;2023-07-22T12:48:28;100162.25;;;28.92;47.13
44457;BME280;30159;49.316;8.558;2023-07-22T12:50:55;100158.69;;;28.92;46.82